sensor_id;sensor_type;location;lat;lon;timestamp;temperature;humidity
32296;DHT22;18781;51.550;5.418;2023-03-05T00:01:24;8.80;60.50
32296;DHT22;18781;51.550;5.418;2023-03-05T00:03:51;8.80;60.60
32296;DHT22;18781;51.550;5.418;2023-03-05T00:06:18;8.80;60.60
32296;DHT22;18781;51.550;5.418;2023-03-05T00:08:44;8.70;60.60
32296;DHT22;18781;51.550;5.418;2023-03-05T00:11:11;8.70;60.60
32296;DHT22;18781;51.550;5.418;2023-03-05T00:13:38;8.70;60.60
32296;DHT22;18781;51.550;5.418;2023-03-05T00:16:06;8.70;60.80
32296;DHT22;18781;51.550;5.418;2023-03-05T00:18:32;8.70;60.90
32296;DHT22;18781;51.550;5.418;2023-03-05T00:20:58;8.70;60.90
32296;DHT22;18781;51.550;5.418;2023-03-05T00:23:23;8.70;60.90
32296;DHT22;18781;51.550;5.418;2023-03-05T00:25:49;8.70;61.00
32296;DHT22;18781;51.550;5.418;2023-03-05T00:28:15;8.70;61.10
32296;DHT22;18781;51.550;5.418;2023-03-05T00:30:40;8.70;61.00
32296;DHT22;18781;51.550;5.418;2023-03-05T00:33:07;8.70;61.10
32296;DHT22;18781;51.550;5.418;2023-03-05T00:35:44;8.70;61.10
32296;DHT22;18781;51.550;5.418;2023-03-05T00:38:11;8.70;61.20
32296;DHT22;18781;51.550;5.418;2023-03-05T00:40:38;8.70;61.20
32296;DHT22;18781;51.550;5.418;2023-03-05T00:43:05;8.60;61.10
32296;DHT22;18781;51.550;5.418;2023-03-05T00:45:31;8.70;61.20
32296;DHT22;18781;51.550;5.418;2023-03-05T00:47:56;8.60;61.30
32296;DHT22;18781;51.550;5.418;2023-03-05T00:50:22;8.70;61.40
32296;DHT22;18781;51.550;5.418;2023-03-05T00:52:48;8.70;61.40
32296;DHT22;18781;51.550;5.418;2023-03-05T00:55:13;8.70;61.90
32296;DHT22;18781;51.550;5.418;2023-03-05T00:57:39;8.70;61.40
32296;DHT22;18781;51.550;5.418;2023-03-05T01:00:05;8.60;61.30
32296;DHT22;18781;51.550;5.418;2023-03-05T01:02:31;8.60;61.40
32296;DHT22;18781;51.550;5.418;2023-03-05T01:04:57;8.60;61.40
32296;DHT22;18781;51.550;5.418;2023-03-05T01:07:23;8.60;61.50
32296;DHT22;18781;51.550;5.418;2023-03-05T01:09:48;8.60;61.50
32296;DHT22;18781;51.550;5.418;2023-03-05T01:12:14;8.60;61.50
32296;DHT22;18781;51.550;5.418;2023-03-05T01:14:41;8.60;61.50
32296;DHT22;18781;51.550;5.418;2023-03-05T01:17:07;8.60;61.60
32296;DHT22;18781;51.550;5.418;2023-03-05T01:19:33;8.60;61.60
32296;DHT22;18781;51.550;5.418;2023-03-05T01:21:59;8.60;61.80
32296;DHT22;18781;51.550;5.418;2023-03-05T01:24:24;8.60;61.80
32296;DHT22;18781;51.550;5.418;2023-03-05T01:26:50;8.60;61.80
32296;DHT22;18781;51.550;5.418;2023-03-05T01:29:16;8.60;61.80
32296;DHT22;18781;51.550;5.418;2023-03-05T01:31:41;8.60;61.80
32296;DHT22;18781;51.550;5.418;2023-03-05T01:34:07;8.50;61.70
32296;DHT22;18781;51.550;5.418;2023-03-05T01:36:33;8.50;61.80
32296;DHT22;18781;51.550;5.418;2023-03-05T01:38:59;8.50;62.00
32296;DHT22;18781;51.550;5.418;2023-03-05T01:41:25;8.50;62.10
32296;DHT22;18781;51.550;5.418;2023-03-05T01:43:51;8.50;62.10
32296;DHT22;18781;51.550;5.418;2023-03-05T01:52:08;8.50;63.40
32296;DHT22;18781;51.550;5.418;2023-03-05T01:54:47;8.50;62.50
32296;DHT22;18781;51.550;5.418;2023-03-05T01:57:17;8.40;62.60
32296;DHT22;18781;51.550;5.418;2023-03-05T01:59:45;8.50;62.50
32296;DHT22;18781;51.550;5.418;2023-03-05T02:02:13;8.40;62.60
32296;DHT22;18781;51.550;5.418;2023-03-05T02:04:59;8.50;62.50
32296;DHT22;18781;51.550;5.418;2023-03-05T02:07:25;8.40;62.70
32296;DHT22;18781;51.550;5.418;2023-03-05T02:09:51;8.40;62.50
32296;DHT22;18781;51.550;5.418;2023-03-05T02:12:16;8.40;62.50
32296;DHT22;18781;51.550;5.418;2023-03-05T02:14:44;8.40;62.60
32296;DHT22;18781;51.550;5.418;2023-03-05T02:17:11;8.40;62.70
32296;DHT22;18781;51.550;5.418;2023-03-05T02:19:51;8.40;62.70
32296;DHT22;18781;51.550;5.418;2023-03-05T02:22:19;8.40;63.00
32296;DHT22;18781;51.550;5.418;2023-03-05T02:24:45;8.40;62.80
32296;DHT22;18781;51.550;5.418;2023-03-05T02:27:12;8.40;62.80
32296;DHT22;18781;51.550;5.418;2023-03-05T02:29:41;8.40;62.80
32296;DHT22;18781;51.550;5.418;2023-03-05T02:32:07;8.40;62.90
32296;DHT22;18781;51.550;5.418;2023-03-05T02:34:34;8.40;62.80
32296;DHT22;18781;51.550;5.418;2023-03-05T02:37:00;8.40;62.80
32296;DHT22;18781;51.550;5.418;2023-03-05T02:39:27;8.40;62.80
32296;DHT22;18781;51.550;5.418;2023-03-05T02:41:52;8.40;62.80
32296;DHT22;18781;51.550;5.418;2023-03-05T02:44:18;8.40;62.90
32296;DHT22;18781;51.550;5.418;2023-03-05T02:46:43;8.40;62.80
32296;DHT22;18781;51.550;5.418;2023-03-05T02:49:09;8.40;62.80
32296;DHT22;18781;51.550;5.418;2023-03-05T02:51:35;8.40;62.80
32296;DHT22;18781;51.550;5.418;2023-03-05T02:54:00;8.40;62.90
32296;DHT22;18781;51.550;5.418;2023-03-05T02:56:26;8.40;62.80
32296;DHT22;18781;51.550;5.418;2023-03-05T02:58:51;8.40;62.80
32296;DHT22;18781;51.550;5.418;2023-03-05T03:01:17;8.40;62.80
32296;DHT22;18781;51.550;5.418;2023-03-05T03:03:43;8.40;62.90
32296;DHT22;18781;51.550;5.418;2023-03-05T03:06:08;8.30;62.80
32296;DHT22;18781;51.550;5.418;2023-03-05T03:08:34;8.30;62.80
32296;DHT22;18781;51.550;5.418;2023-03-05T03:11:04;8.30;62.90
32296;DHT22;18781;51.550;5.418;2023-03-05T03:13:30;8.30;63.10
32296;DHT22;18781;51.550;5.418;2023-03-05T03:16:10;8.30;63.00
32296;DHT22;18781;51.550;5.418;2023-03-05T03:18:36;8.30;63.30
32296;DHT22;18781;51.550;5.418;2023-03-05T03:21:02;8.30;62.90
32296;DHT22;18781;51.550;5.418;2023-03-05T03:23:27;8.30;63.00
32296;DHT22;18781;51.550;5.418;2023-03-05T03:25:53;8.30;63.00
32296;DHT22;18781;51.550;5.418;2023-03-05T03:28:19;8.30;62.90
32296;DHT22;18781;51.550;5.418;2023-03-05T03:30:45;8.20;62.90
32296;DHT22;18781;51.550;5.418;2023-03-05T03:33:10;8.20;62.90
32296;DHT22;18781;51.550;5.418;2023-03-05T03:35:37;8.20;62.90
32296;DHT22;18781;51.550;5.418;2023-03-05T03:38:03;8.20;63.00
32296;DHT22;18781;51.550;5.418;2023-03-05T03:40:29;8.10;63.00
32296;DHT22;18781;51.550;5.418;2023-03-05T03:42:54;8.10;63.10
32296;DHT22;18781;51.550;5.418;2023-03-05T03:45:20;8.10;63.20
32296;DHT22;18781;51.550;5.418;2023-03-05T03:47:50;8.10;63.20
32296;DHT22;18781;51.550;5.418;2023-03-05T03:50:17;8.10;63.50
32296;DHT22;18781;51.550;5.418;2023-03-05T03:52:43;8.10;63.40
32296;DHT22;18781;51.550;5.418;2023-03-05T03:55:09;8.10;63.40
32296;DHT22;18781;51.550;5.418;2023-03-05T03:57:35;8.00;63.40
32296;DHT22;18781;51.550;5.418;2023-03-05T04:00:03;8.00;63.40
32296;DHT22;18781;51.550;5.418;2023-03-05T04:02:31;8.00;63.50
32296;DHT22;18781;51.550;5.418;2023-03-05T04:04:57;8.00;63.40
32296;DHT22;18781;51.550;5.418;2023-03-05T04:07:23;8.00;63.50
32296;DHT22;18781;51.550;5.418;2023-03-05T04:09:48;8.00;63.60
32296;DHT22;18781;51.550;5.418;2023-03-05T04:12:14;8.00;63.60
32296;DHT22;18781;51.550;5.418;2023-03-05T04:14:46;8.00;63.70
32296;DHT22;18781;51.550;5.418;2023-03-05T04:17:12;7.90;63.60
32296;DHT22;18781;51.550;5.418;2023-03-05T04:19:38;7.90;63.60
32296;DHT22;18781;51.550;5.418;2023-03-05T04:22:05;7.90;63.70
32296;DHT22;18781;51.550;5.418;2023-03-05T04:24:31;7.90;63.70
32296;DHT22;18781;51.550;5.418;2023-03-05T04:26:56;7.90;63.70
32296;DHT22;18781;51.550;5.418;2023-03-05T04:29:22;7.90;63.80
32296;DHT22;18781;51.550;5.418;2023-03-05T04:31:47;7.90;63.80
32296;DHT22;18781;51.550;5.418;2023-03-05T04:34:13;7.90;63.80
32296;DHT22;18781;51.550;5.418;2023-03-05T04:36:38;7.90;63.80
32296;DHT22;18781;51.550;5.418;2023-03-05T04:39:04;7.90;63.80
32296;DHT22;18781;51.550;5.418;2023-03-05T04:41:30;7.90;63.70
32296;DHT22;18781;51.550;5.418;2023-03-05T04:43:55;7.90;63.80
32296;DHT22;18781;51.550;5.418;2023-03-05T04:46:21;7.90;63.80
32296;DHT22;18781;51.550;5.418;2023-03-05T04:48:46;7.90;63.80
32296;DHT22;18781;51.550;5.418;2023-03-05T04:51:12;7.90;63.80
32296;DHT22;18781;51.550;5.418;2023-03-05T04:53:37;7.80;63.90
32296;DHT22;18781;51.550;5.418;2023-03-05T04:56:04;7.80;63.90
32296;DHT22;18781;51.550;5.418;2023-03-05T04:58:30;7.80;64.00
32296;DHT22;18781;51.550;5.418;2023-03-05T05:01:03;7.80;63.90
32296;DHT22;18781;51.550;5.418;2023-03-05T05:03:29;7.80;64.10
32296;DHT22;18781;51.550;5.418;2023-03-05T05:05:56;7.80;63.90
32296;DHT22;18781;51.550;5.418;2023-03-05T05:08:22;7.80;63.90
32296;DHT22;18781;51.550;5.418;2023-03-05T05:11:14;7.80;64.00
32296;DHT22;18781;51.550;5.418;2023-03-05T05:13:39;7.80;64.40
32296;DHT22;18781;51.550;5.418;2023-03-05T05:16:06;7.80;64.00
32296;DHT22;18781;51.550;5.418;2023-03-05T05:18:32;7.80;64.10
32296;DHT22;18781;51.550;5.418;2023-03-05T05:20:57;7.80;64.10
32296;DHT22;18781;51.550;5.418;2023-03-05T05:23:23;7.80;64.10
32296;DHT22;18781;51.550;5.418;2023-03-05T05:26:02;7.80;64.20
32296;DHT22;18781;51.550;5.418;2023-03-05T05:28:28;7.80;64.70
32296;DHT22;18781;51.550;5.418;2023-03-05T05:30:54;7.80;64.30
32296;DHT22;18781;51.550;5.418;2023-03-05T05:33:21;7.80;64.30
32296;DHT22;18781;51.550;5.418;2023-03-05T05:35:48;7.80;64.50
32296;DHT22;18781;51.550;5.418;2023-03-05T05:38:14;7.80;64.60
32296;DHT22;18781;51.550;5.418;2023-03-05T05:40:40;7.80;64.60
32296;DHT22;18781;51.550;5.418;2023-03-05T05:43:05;7.80;64.60
32296;DHT22;18781;51.550;5.418;2023-03-05T05:45:31;7.80;64.50
32296;DHT22;18781;51.550;5.418;2023-03-05T05:47:57;7.80;64.60
32296;DHT22;18781;51.550;5.418;2023-03-05T05:50:22;7.80;64.60
32296;DHT22;18781;51.550;5.418;2023-03-05T05:52:50;7.80;64.60
32296;DHT22;18781;51.550;5.418;2023-03-05T05:55:16;7.80;64.70
32296;DHT22;18781;51.550;5.418;2023-03-05T05:57:42;7.70;64.60
32296;DHT22;18781;51.550;5.418;2023-03-05T06:00:11;7.80;64.80
32296;DHT22;18781;51.550;5.418;2023-03-05T06:02:41;7.70;64.70
32296;DHT22;18781;51.550;5.418;2023-03-05T06:05:10;7.70;64.90
32296;DHT22;18781;51.550;5.418;2023-03-05T06:07:36;7.70;64.90
32296;DHT22;18781;51.550;5.418;2023-03-05T06:10:02;7.70;64.90
32296;DHT22;18781;51.550;5.418;2023-03-05T06:12:28;7.70;65.00
32296;DHT22;18781;51.550;5.418;2023-03-05T06:14:54;7.70;65.10
32296;DHT22;18781;51.550;5.418;2023-03-05T06:17:19;7.70;65.10
32296;DHT22;18781;51.550;5.418;2023-03-05T06:19:45;7.70;65.20
32296;DHT22;18781;51.550;5.418;2023-03-05T06:22:11;7.70;65.20
32296;DHT22;18781;51.550;5.418;2023-03-05T06:24:37;7.70;65.30
32296;DHT22;18781;51.550;5.418;2023-03-05T06:27:04;7.70;65.40
32296;DHT22;18781;51.550;5.418;2023-03-05T06:29:30;7.70;65.50
32296;DHT22;18781;51.550;5.418;2023-03-05T06:31:56;7.70;65.50
32296;DHT22;18781;51.550;5.418;2023-03-05T06:34:22;7.70;66.10
32296;DHT22;18781;51.550;5.418;2023-03-05T06:36:47;7.70;65.60
32296;DHT22;18781;51.550;5.418;2023-03-05T06:39:13;7.70;65.70
32296;DHT22;18781;51.550;5.418;2023-03-05T06:41:39;7.70;65.80
32296;DHT22;18781;51.550;5.418;2023-03-05T06:44:05;7.70;65.80
32296;DHT22;18781;51.550;5.418;2023-03-05T06:46:33;7.70;65.90
32296;DHT22;18781;51.550;5.418;2023-03-05T06:49:00;7.70;66.00
32296;DHT22;18781;51.550;5.418;2023-03-05T06:51:34;7.70;66.00
32296;DHT22;18781;51.550;5.418;2023-03-05T06:54:14;7.70;66.20
32296;DHT22;18781;51.550;5.418;2023-03-05T06:56:42;7.80;66.70
32296;DHT22;18781;51.550;5.418;2023-03-05T06:59:10;7.70;66.20
32296;DHT22;18781;51.550;5.418;2023-03-05T07:01:36;7.70;66.80
32296;DHT22;18781;51.550;5.418;2023-03-05T07:04:02;7.80;66.30
32296;DHT22;18781;51.550;5.418;2023-03-05T07:06:32;7.80;66.40
32296;DHT22;18781;51.550;5.418;2023-03-05T07:08:58;7.80;66.50
32296;DHT22;18781;51.550;5.418;2023-03-05T07:11:26;7.80;66.80
32296;DHT22;18781;51.550;5.418;2023-03-05T07:13:52;7.80;66.20
32296;DHT22;18781;51.550;5.418;2023-03-05T07:16:25;7.80;66.30
32296;DHT22;18781;51.550;5.418;2023-03-05T07:18:52;7.80;66.80
32296;DHT22;18781;51.550;5.418;2023-03-05T07:21:20;7.80;66.50
32296;DHT22;18781;51.550;5.418;2023-03-05T07:23:46;7.90;66.60
32296;DHT22;18781;51.550;5.418;2023-03-05T07:26:12;7.80;66.60
32296;DHT22;18781;51.550;5.418;2023-03-05T07:28:38;7.90;66.70
32296;DHT22;18781;51.550;5.418;2023-03-05T07:31:06;7.90;66.60
32296;DHT22;18781;51.550;5.418;2023-03-05T07:33:32;7.90;66.70
32296;DHT22;18781;51.550;5.418;2023-03-05T07:35:59;7.90;66.60
32296;DHT22;18781;51.550;5.418;2023-03-05T07:38:26;8.00;66.70
32296;DHT22;18781;51.550;5.418;2023-03-05T07:40:52;8.00;66.70
32296;DHT22;18781;51.550;5.418;2023-03-05T07:43:17;8.00;66.70
32296;DHT22;18781;51.550;5.418;2023-03-05T07:45:44;8.00;66.70
32296;DHT22;18781;51.550;5.418;2023-03-05T07:48:15;8.00;66.70
32296;DHT22;18781;51.550;5.418;2023-03-05T07:50:42;8.00;66.80
32296;DHT22;18781;51.550;5.418;2023-03-05T07:53:08;8.10;66.60
32296;DHT22;18781;51.550;5.418;2023-03-05T07:55:34;8.10;66.60
32296;DHT22;18781;51.550;5.418;2023-03-05T07:57:59;8.10;66.70
32296;DHT22;18781;51.550;5.418;2023-03-05T08:00:25;8.10;66.70
32296;DHT22;18781;51.550;5.418;2023-03-05T08:02:51;8.10;66.60
32296;DHT22;18781;51.550;5.418;2023-03-05T08:05:16;8.20;66.70
32296;DHT22;18781;51.550;5.418;2023-03-05T08:07:42;8.20;66.70
32296;DHT22;18781;51.550;5.418;2023-03-05T08:10:08;8.20;66.80
32296;DHT22;18781;51.550;5.418;2023-03-05T08:12:34;8.30;66.80
32296;DHT22;18781;51.550;5.418;2023-03-05T08:15:00;8.30;66.80
32296;DHT22;18781;51.550;5.418;2023-03-05T08:17:25;8.30;66.70
32296;DHT22;18781;51.550;5.418;2023-03-05T08:19:51;8.30;66.70
32296;DHT22;18781;51.550;5.418;2023-03-05T08:22:18;8.30;66.70
32296;DHT22;18781;51.550;5.418;2023-03-05T08:24:44;8.30;66.60
32296;DHT22;18781;51.550;5.418;2023-03-05T08:27:10;8.30;66.60
32296;DHT22;18781;51.550;5.418;2023-03-05T08:29:36;8.40;66.70
32296;DHT22;18781;51.550;5.418;2023-03-05T08:32:01;8.40;66.70
32296;DHT22;18781;51.550;5.418;2023-03-05T08:34:27;8.40;66.70
32296;DHT22;18781;51.550;5.418;2023-03-05T08:36:52;8.40;66.60
32296;DHT22;18781;51.550;5.418;2023-03-05T08:39:18;8.50;66.80
32296;DHT22;18781;51.550;5.418;2023-03-05T08:41:44;8.50;66.80
32296;DHT22;18781;51.550;5.418;2023-03-05T08:44:09;8.60;66.70
32296;DHT22;18781;51.550;5.418;2023-03-05T08:46:35;8.60;66.70
32296;DHT22;18781;51.550;5.418;2023-03-05T08:49:02;8.60;66.70
32296;DHT22;18781;51.550;5.418;2023-03-05T08:51:28;8.70;66.90
32296;DHT22;18781;51.550;5.418;2023-03-05T08:53:56;8.70;66.80
32296;DHT22;18781;51.550;5.418;2023-03-05T08:56:22;8.80;66.80
32296;DHT22;18781;51.550;5.418;2023-03-05T08:58:48;8.80;66.50
32296;DHT22;18781;51.550;5.418;2023-03-05T09:01:14;8.90;66.40
32296;DHT22;18781;51.550;5.418;2023-03-05T09:03:40;8.90;66.30
32296;DHT22;18781;51.550;5.418;2023-03-05T09:06:08;8.90;66.20
32296;DHT22;18781;51.550;5.418;2023-03-05T09:08:35;8.90;66.10
32296;DHT22;18781;51.550;5.418;2023-03-05T09:11:02;9.00;66.10
32296;DHT22;18781;51.550;5.418;2023-03-05T09:13:28;9.00;66.00
32296;DHT22;18781;51.550;5.418;2023-03-05T09:16:02;9.00;65.90
32296;DHT22;18781;51.550;5.418;2023-03-05T09:18:28;9.10;65.90
32296;DHT22;18781;51.550;5.418;2023-03-05T09:20:55;9.10;65.40
32296;DHT22;18781;51.550;5.418;2023-03-05T09:23:21;9.10;65.20
32296;DHT22;18781;51.550;5.418;2023-03-05T09:25:47;9.10;65.00
32296;DHT22;18781;51.550;5.418;2023-03-05T09:28:13;9.10;65.30
32296;DHT22;18781;51.550;5.418;2023-03-05T09:30:38;9.20;65.40
32296;DHT22;18781;51.550;5.418;2023-03-05T09:33:04;9.20;64.90
32296;DHT22;18781;51.550;5.418;2023-03-05T09:35:32;9.20;64.70
32296;DHT22;18781;51.550;5.418;2023-03-05T09:37:58;9.20;64.20
32296;DHT22;18781;51.550;5.418;2023-03-05T09:40:24;9.30;64.30
32296;DHT22;18781;51.550;5.418;2023-03-05T09:43:17;9.30;64.60
32296;DHT22;18781;51.550;5.418;2023-03-05T09:45:55;9.30;64.80
32296;DHT22;18781;51.550;5.418;2023-03-05T09:49:02;9.30;64.40
32296;DHT22;18781;51.550;5.418;2023-03-05T09:51:37;9.30;64.10
32296;DHT22;18781;51.550;5.418;2023-03-05T09:54:13;9.40;63.60
32296;DHT22;18781;51.550;5.418;2023-03-05T09:56:50;9.40;63.40
32296;DHT22;18781;51.550;5.418;2023-03-05T09:59:26;9.40;63.80
32296;DHT22;18781;51.550;5.418;2023-03-05T10:02:04;9.40;63.50
32296;DHT22;18781;51.550;5.418;2023-03-05T10:04:56;9.40;62.90
32296;DHT22;18781;51.550;5.418;2023-03-05T10:07:30;9.40;62.90
32296;DHT22;18781;51.550;5.418;2023-03-05T10:09:58;9.40;63.00
32296;DHT22;18781;51.550;5.418;2023-03-05T10:14:57;9.40;63.00
32296;DHT22;18781;51.550;5.418;2023-03-05T10:17:52;9.30;63.40
32296;DHT22;18781;51.550;5.418;2023-03-05T10:20:27;9.40;63.10
32296;DHT22;18781;51.550;5.418;2023-03-05T10:31:40;9.50;63.40
32296;DHT22;18781;51.550;5.418;2023-03-05T10:34:38;9.50;62.70
32296;DHT22;18781;51.550;5.418;2023-03-05T10:39:47;9.50;62.60
32296;DHT22;18781;51.550;5.418;2023-03-05T10:42:35;9.50;63.30
32296;DHT22;18781;51.550;5.418;2023-03-05T10:45:20;9.50;62.90
32296;DHT22;18781;51.550;5.418;2023-03-05T10:50:58;9.50;62.60
32296;DHT22;18781;51.550;5.418;2023-03-05T10:53:30;9.60;62.90
32296;DHT22;18781;51.550;5.418;2023-03-05T10:56:04;9.60;63.10
32296;DHT22;18781;51.550;5.418;2023-03-05T10:58:30;9.60;62.70
32296;DHT22;18781;51.550;5.418;2023-03-05T11:03:25;9.70;63.20
32296;DHT22;18781;51.550;5.418;2023-03-05T11:06:11;9.70;63.40
32296;DHT22;18781;51.550;5.418;2023-03-05T11:08:37;9.80;63.00
32296;DHT22;18781;51.550;5.418;2023-03-05T11:14:01;9.80;62.80
32296;DHT22;18781;51.550;5.418;2023-03-05T11:16:45;9.90;62.60
32296;DHT22;18781;51.550;5.418;2023-03-05T11:21:41;10.00;62.00
32296;DHT22;18781;51.550;5.418;2023-03-05T11:24:13;10.00;61.70
32296;DHT22;18781;51.550;5.418;2023-03-05T11:26:51;10.10;62.00
32296;DHT22;18781;51.550;5.418;2023-03-05T11:31:46;10.20;60.40
32296;DHT22;18781;51.550;5.418;2023-03-05T11:37:04;10.20;60.20
32296;DHT22;18781;51.550;5.418;2023-03-05T11:39:32;10.20;60.30
32296;DHT22;18781;51.550;5.418;2023-03-05T11:42:04;10.20;61.00
32296;DHT22;18781;51.550;5.418;2023-03-05T11:44:48;10.30;61.20
32296;DHT22;18781;51.550;5.418;2023-03-05T11:47:41;10.30;60.40
32296;DHT22;18781;51.550;5.418;2023-03-05T11:50:32;10.40;60.40
32296;DHT22;18781;51.550;5.418;2023-03-05T11:52:59;10.50;60.50
32296;DHT22;18781;51.550;5.418;2023-03-05T11:55:39;10.50;59.40
32296;DHT22;18781;51.550;5.418;2023-03-05T12:00:33;10.60;60.40
32296;DHT22;18781;51.550;5.418;2023-03-05T12:03:04;10.60;58.60
32296;DHT22;18781;51.550;5.418;2023-03-05T12:05:30;10.60;58.10
32296;DHT22;18781;51.550;5.418;2023-03-05T12:07:59;10.60;58.50
32296;DHT22;18781;51.550;5.418;2023-03-05T12:10:26;10.60;58.80
32296;DHT22;18781;51.550;5.418;2023-03-05T12:13:00;10.60;58.20
32296;DHT22;18781;51.550;5.418;2023-03-05T12:15:46;10.60;58.00
32296;DHT22;18781;51.550;5.418;2023-03-05T12:21:13;10.70;57.00
32296;DHT22;18781;51.550;5.418;2023-03-05T12:26:16;10.70;56.70
32296;DHT22;18781;51.550;5.418;2023-03-05T12:33:38;10.70;57.20
32296;DHT22;18781;51.550;5.418;2023-03-05T12:38:42;10.70;57.30
32296;DHT22;18781;51.550;5.418;2023-03-05T12:46:30;10.70;57.10
32296;DHT22;18781;51.550;5.418;2023-03-05T12:48:57;10.70;57.10
32296;DHT22;18781;51.550;5.418;2023-03-05T12:51:35;10.70;57.00
32296;DHT22;18781;51.550;5.418;2023-03-05T12:54:23;10.70;56.60
32296;DHT22;18781;51.550;5.418;2023-03-05T12:56:51;10.70;57.90
32296;DHT22;18781;51.550;5.418;2023-03-05T12:59:19;10.70;56.40
32296;DHT22;18781;51.550;5.418;2023-03-05T13:01:53;10.80;56.20
32296;DHT22;18781;51.550;5.418;2023-03-05T13:04:32;10.80;55.40
32296;DHT22;18781;51.550;5.418;2023-03-05T13:07:04;10.80;55.60
32296;DHT22;18781;51.550;5.418;2023-03-05T13:09:32;10.80;55.90
32296;DHT22;18781;51.550;5.418;2023-03-05T13:12:00;10.80;56.40
32296;DHT22;18781;51.550;5.418;2023-03-05T13:14:44;10.80;56.50
32296;DHT22;18781;51.550;5.418;2023-03-05T13:19:54;10.90;56.20
32296;DHT22;18781;51.550;5.418;2023-03-05T13:22:19;10.90;57.00
32296;DHT22;18781;51.550;5.418;2023-03-05T13:24:45;11.00;56.40
32296;DHT22;18781;51.550;5.418;2023-03-05T13:27:31;11.00;56.60
32296;DHT22;18781;51.550;5.418;2023-03-05T13:29:57;11.00;56.00
32296;DHT22;18781;51.550;5.418;2023-03-05T13:32:30;11.10;56.70
32296;DHT22;18781;51.550;5.418;2023-03-05T13:34:58;11.10;56.50
32296;DHT22;18781;51.550;5.418;2023-03-05T13:37:26;11.20;56.70
32296;DHT22;18781;51.550;5.418;2023-03-05T13:39:59;11.20;56.60
32296;DHT22;18781;51.550;5.418;2023-03-05T13:42:33;11.30;56.10
32296;DHT22;18781;51.550;5.418;2023-03-05T13:45:02;11.30;56.00
32296;DHT22;18781;51.550;5.418;2023-03-05T13:47:31;11.40;55.40
32296;DHT22;18781;51.550;5.418;2023-03-05T13:50:01;11.40;55.80
32296;DHT22;18781;51.550;5.418;2023-03-05T13:52:33;11.40;55.50
32296;DHT22;18781;51.550;5.418;2023-03-05T13:55:00;11.50;54.90
32296;DHT22;18781;51.550;5.418;2023-03-05T13:57:37;11.40;54.90
32296;DHT22;18781;51.550;5.418;2023-03-05T14:00:05;11.40;54.80
32296;DHT22;18781;51.550;5.418;2023-03-05T14:02:31;11.40;55.00
32296;DHT22;18781;51.550;5.418;2023-03-05T14:04:57;11.40;55.30
32296;DHT22;18781;51.550;5.418;2023-03-05T14:07:25;11.40;55.30
32296;DHT22;18781;51.550;5.418;2023-03-05T14:09:52;11.40;55.50
32296;DHT22;18781;51.550;5.418;2023-03-05T14:12:44;11.40;55.60
32296;DHT22;18781;51.550;5.418;2023-03-05T14:15:23;11.40;55.30
32296;DHT22;18781;51.550;5.418;2023-03-05T14:17:49;11.40;55.20
32296;DHT22;18781;51.550;5.418;2023-03-05T14:20:23;11.40;55.20
32296;DHT22;18781;51.550;5.418;2023-03-05T14:22:59;11.40;54.90
32296;DHT22;18781;51.550;5.418;2023-03-05T14:28:18;11.40;55.10
32296;DHT22;18781;51.550;5.418;2023-03-05T14:30:47;11.40;55.00
32296;DHT22;18781;51.550;5.418;2023-03-05T14:33:13;11.40;55.00
32296;DHT22;18781;51.550;5.418;2023-03-05T14:35:39;11.40;55.30
32296;DHT22;18781;51.550;5.418;2023-03-05T14:38:05;11.40;55.30
32296;DHT22;18781;51.550;5.418;2023-03-05T14:40:34;11.40;55.20
32296;DHT22;18781;51.550;5.418;2023-03-05T14:43:02;11.40;54.20
32296;DHT22;18781;51.550;5.418;2023-03-05T14:45:36;11.40;54.50
32296;DHT22;18781;51.550;5.418;2023-03-05T14:48:05;11.40;54.50
32296;DHT22;18781;51.550;5.418;2023-03-05T14:50:46;11.40;54.60
32296;DHT22;18781;51.550;5.418;2023-03-05T14:53:18;11.40;54.60
32296;DHT22;18781;51.550;5.418;2023-03-05T14:55:47;11.40;54.20
32296;DHT22;18781;51.550;5.418;2023-03-05T14:58:22;11.30;54.40
32296;DHT22;18781;51.550;5.418;2023-03-05T15:00:51;11.30;53.70
32296;DHT22;18781;51.550;5.418;2023-03-05T15:03:18;11.30;53.30
32296;DHT22;18781;51.550;5.418;2023-03-05T15:05:46;11.20;53.50
32296;DHT22;18781;51.550;5.418;2023-03-05T15:08:27;11.20;54.10
32296;DHT22;18781;51.550;5.418;2023-03-05T15:10:54;11.10;54.10
32296;DHT22;18781;51.550;5.418;2023-03-05T15:13:20;11.10;54.50
32296;DHT22;18781;51.550;5.418;2023-03-05T15:15:47;11.10;54.60
32296;DHT22;18781;51.550;5.418;2023-03-05T15:18:14;11.10;54.50
32296;DHT22;18781;51.550;5.418;2023-03-05T15:20:40;11.10;54.40
32296;DHT22;18781;51.550;5.418;2023-03-05T15:23:06;11.00;54.60
32296;DHT22;18781;51.550;5.418;2023-03-05T15:25:32;11.00;54.60
32296;DHT22;18781;51.550;5.418;2023-03-05T15:27:58;11.00;54.70
32296;DHT22;18781;51.550;5.418;2023-03-05T15:30:30;11.00;55.00
32296;DHT22;18781;51.550;5.418;2023-03-05T15:32:57;11.00;55.20
32296;DHT22;18781;51.550;5.418;2023-03-05T15:35:25;11.00;55.40
32296;DHT22;18781;51.550;5.418;2023-03-05T15:37:51;11.00;55.50
32296;DHT22;18781;51.550;5.418;2023-03-05T15:40:17;11.00;55.50
32296;DHT22;18781;51.550;5.418;2023-03-05T15:42:43;11.00;55.60
32296;DHT22;18781;51.550;5.418;2023-03-05T15:45:09;11.00;55.50
32296;DHT22;18781;51.550;5.418;2023-03-05T15:47:35;10.90;55.10
32296;DHT22;18781;51.550;5.418;2023-03-05T15:50:01;10.90;54.80
32296;DHT22;18781;51.550;5.418;2023-03-05T15:52:27;10.90;54.80
32296;DHT22;18781;51.550;5.418;2023-03-05T15:54:52;10.90;54.70
32296;DHT22;18781;51.550;5.418;2023-03-05T15:57:19;10.80;54.70
32296;DHT22;18781;51.550;5.418;2023-03-05T15:59:47;10.80;54.80
32296;DHT22;18781;51.550;5.418;2023-03-05T16:02:12;10.70;54.80
32296;DHT22;18781;51.550;5.418;2023-03-05T16:04:38;10.70;54.80
32296;DHT22;18781;51.550;5.418;2023-03-05T16:07:04;10.70;55.00
32296;DHT22;18781;51.550;5.418;2023-03-05T16:09:35;10.60;55.10
32296;DHT22;18781;51.550;5.418;2023-03-05T16:12:03;10.60;55.00
32296;DHT22;18781;51.550;5.418;2023-03-05T16:14:32;10.60;55.30
32296;DHT22;18781;51.550;5.418;2023-03-05T16:16:58;10.50;55.40
32296;DHT22;18781;51.550;5.418;2023-03-05T16:19:26;10.50;55.50
32296;DHT22;18781;51.550;5.418;2023-03-05T16:21:52;10.50;55.60
32296;DHT22;18781;51.550;5.418;2023-03-05T16:24:17;10.40;55.50
32296;DHT22;18781;51.550;5.418;2023-03-05T16:26:43;10.40;55.50
32296;DHT22;18781;51.550;5.418;2023-03-05T16:29:10;10.40;55.30
32296;DHT22;18781;51.550;5.418;2023-03-05T16:31:36;10.40;55.50
32296;DHT22;18781;51.550;5.418;2023-03-05T16:34:07;10.30;55.70
32296;DHT22;18781;51.550;5.418;2023-03-05T16:36:33;10.30;55.90
32296;DHT22;18781;51.550;5.418;2023-03-05T16:39:01;10.30;56.00
32296;DHT22;18781;51.550;5.418;2023-03-05T16:41:28;10.20;56.10
32296;DHT22;18781;51.550;5.418;2023-03-05T16:43:55;10.20;56.30
32296;DHT22;18781;51.550;5.418;2023-03-05T16:46:22;10.20;56.40
32296;DHT22;18781;51.550;5.418;2023-03-05T16:48:48;10.20;56.40
32296;DHT22;18781;51.550;5.418;2023-03-05T16:51:14;10.10;56.40
32296;DHT22;18781;51.550;5.418;2023-03-05T16:53:40;10.20;56.70